createdAt,value
2019-05-25T00:00:52.823Z,43.40
2019-05-25T00:01:52.805Z,43.60
2019-05-25T00:02:52.809Z,43.40
2019-05-25T00:03:52.863Z,43.02
2019-05-25T00:04:52.871Z,43.38
2019-05-25T00:05:52.837Z,43.40
2019-05-25T00:06:52.841Z,43.40
2019-05-25T00:07:52.866Z,43.50
2019-05-25T00:08:52.874Z,43.40
2019-05-25T00:09:52.875Z,43.40
2019-05-25T00:10:52.895Z,43.67
2019-05-25T00:11:52.968Z,43.70
2019-05-25T00:12:52.923Z,43.77
2019-05-25T00:13:52.937Z,43.57
2019-05-25T00:14:52.949Z,43.77
2019-05-25T00:15:52.942Z,43.57
2019-05-25T00:16:52.929Z,43.96
2019-05-25T00:17:52.961Z,44.15
2019-05-25T00:18:53.021Z,43.96
2019-05-25T00:19:52.981Z,44.54
2019-05-25T00:20:52.996Z,44.24
2019-05-25T00:21:52.987Z,44.82
2019-05-25T00:22:52.994Z,45.01
2019-05-25T00:23:53.015Z,45.01
2019-05-25T00:24:53.029Z,44.92
2019-05-25T00:25:53.023Z,44.73
2019-05-25T00:26:53.039Z,45.30
2019-05-25T00:27:53.042Z,45.40
2019-05-25T00:28:53.070Z,45.40
2019-05-25T00:29:53.095Z,45.40
2019-05-25T00:30:53.084Z,45.68
2019-05-25T00:31:53.136Z,45.68
2019-05-25T00:32:53.080Z,45.68
2019-05-25T00:33:53.087Z,45.50
2019-05-25T00:34:53.125Z,45.78
2019-05-25T00:35:53.122Z,45.88
2019-05-25T00:36:53.133Z,45.68
2019-05-25T00:37:53.155Z,45.88
2019-05-25T00:38:53.190Z,45.78
2019-05-25T00:39:53.147Z,45.78
2019-05-25T00:40:53.179Z,46.17
2019-05-25T00:41:53.205Z,46.17
2019-05-25T00:42:53.188Z,45.98
2019-05-25T00:43:53.219Z,45.98
2019-05-25T00:44:53.207Z,46.07
2019-05-25T00:45:53.221Z,46.24
2019-05-25T00:46:53.219Z,46.24
2019-05-25T00:47:53.227Z,46.14
2019-05-25T00:48:53.242Z,46.05
2019-05-25T00:49:53.236Z,46.34
2019-05-25T00:50:53.308Z,46.43
2019-05-25T00:51:53.269Z,46.62
2019-05-25T00:52:53.282Z,47.20
2019-05-25T00:53:53.280Z,47.10
2019-05-25T00:54:53.292Z,47.01
2019-05-25T00:55:53.302Z,47.10
2019-05-25T00:56:53.371Z,47.68
2019-05-25T00:57:53.306Z,47.39
2019-05-25T00:58:53.342Z,47.37
2019-05-25T00:59:53.323Z,48.13
2019-05-25T01:00:53.334Z,47.94
2019-05-25T01:01:53.387Z,47.87
2019-05-25T01:02:53.379Z,48.74
2019-05-25T01:03:53.378Z,47.97
2019-05-25T01:04:53.366Z,48.33
2019-05-25T01:05:53.381Z,48.04
2019-05-25T01:06:53.424Z,48.43
2019-05-25T01:07:53.423Z,48.52
2019-05-25T01:08:53.403Z,48.43
2019-05-25T01:09:53.421Z,48.71
2019-05-25T01:10:53.444Z,48.71
2019-05-25T01:11:53.444Z,48.90
2019-05-25T01:12:53.478Z,48.80
2019-05-25T01:13:53.450Z,48.71
2019-05-25T01:14:53.481Z,48.43
2019-05-25T01:15:53.467Z,48.90
2019-05-25T01:16:53.501Z,49.10
2019-05-25T01:17:53.529Z,49.48
2019-05-25T01:18:53.491Z,49.10
2019-05-25T01:19:53.497Z,49.38
2019-05-25T01:20:53.540Z,49.19
2019-05-25T01:21:53.632Z,49.48
2019-05-25T01:22:53.570Z,49.00
2019-05-25T01:23:53.545Z,49.19
2019-05-25T01:24:53.567Z,49.76
2019-05-25T01:25:53.577Z,49.76
2019-05-25T01:26:53.581Z,49.48
2019-05-25T01:27:53.573Z,49.57
2019-05-25T01:28:53.632Z,49.26
2019-05-25T01:29:53.595Z,49.96
2019-05-25T01:30:53.611Z,49.86
2019-05-25T01:31:53.638Z,49.65
2019-05-25T01:32:53.625Z,49.96
2019-05-25T01:33:53.656Z,50.03
2019-05-25T01:34:53.634Z,50.12
2019-05-25T01:35:53.655Z,50.22
2019-05-25T01:36:53.648Z,50.22
2019-05-25T01:37:53.674Z,50.79
2019-05-25T01:38:53.685Z,50.79
2019-05-25T01:39:53.717Z,51.28
2019-05-25T01:40:53.690Z,51.18
2019-05-25T01:41:53.701Z,51.18
2019-05-25T01:42:53.725Z,51.08
2019-05-25T01:43:53.721Z,51.37
2019-05-25T01:44:53.787Z,51.46
2019-05-25T01:45:53.728Z,51.37
2019-05-25T01:46:53.772Z,51.28
2019-05-25T01:47:53.762Z,51.56
2019-05-25T01:48:53.750Z,51.85
2019-05-25T01:49:53.814Z,51.85
2019-05-25T01:50:53.767Z,52.23
2019-05-25T01:51:53.776Z,52.14
2019-05-25T01:52:53.802Z,52.23
2019-05-25T01:53:53.848Z,51.75
2019-05-25T01:54:59.716Z,52.23
2019-05-25T01:55:53.830Z,52.42
2019-05-25T01:56:53.869Z,52.71
2019-05-25T01:57:53.837Z,52.69
2019-05-25T01:58:53.848Z,52.69
2019-05-25T01:59:53.908Z,52.30
2019-05-25T02:00:53.891Z,52.40
2019-05-25T02:01:53.860Z,52.97
2019-05-25T02:02:53.880Z,53.55
2019-05-25T02:03:53.892Z,52.69
2019-05-25T02:04:53.889Z,53.07
2019-05-25T02:05:53.960Z,53.74
2019-05-25T02:06:53.906Z,54.41
2019-05-25T02:07:53.923Z,54.89
2019-05-25T02:08:53.925Z,54.70
2019-05-25T02:09:53.931Z,55.36
2019-05-25T02:10:53.965Z,54.32
2019-05-25T02:11:54.546Z,54.99
2019-05-25T02:12:53.972Z,55.56
2019-05-25T02:13:54.007Z,54.99
2019-05-25T02:14:54.079Z,55.91
2019-05-25T02:15:53.994Z,56.20
2019-05-25T02:16:54.231Z,56.10
2019-05-25T02:17:53.998Z,56.10
2019-05-25T02:18:54.062Z,56.59
2019-05-25T02:19:54.013Z,56.87
2019-05-25T02:20:54.030Z,56.59
2019-05-25T02:21:54.057Z,56.87
2019-05-25T02:22:54.066Z,58.02
2019-05-25T02:23:54.064Z,56.77
2019-05-25T02:24:54.072Z,58.22
2019-05-25T02:25:54.085Z,58.40
2019-05-25T02:26:54.201Z,58.31
2019-05-25T02:27:54.151Z,58.69
2019-05-25T02:28:54.105Z,59.17
2019-05-25T02:29:54.114Z,59.23
2019-05-25T02:30:54.114Z,59.91
2019-05-25T02:31:54.105Z,59.72
2019-05-25T02:32:54.135Z,60.19
2019-05-25T02:33:54.157Z,59.94
2019-05-25T02:34:54.192Z,59.91
2019-05-25T02:35:54.147Z,59.72
2019-05-25T02:36:54.166Z,60.10
2019-05-25T02:37:54.182Z,59.91
2019-05-25T02:38:54.233Z,60.29
2019-05-25T02:39:54.182Z,60.19
2019-05-25T02:40:54.210Z,60.96
2019-05-25T02:41:54.201Z,60.86
2019-05-25T02:42:54.213Z,60.19
2019-05-25T02:43:54.226Z,60.38
2019-05-25T02:44:54.239Z,60.48
2019-05-25T02:45:54.225Z,60.48
2019-05-25T02:46:54.245Z,60.96
2019-05-25T02:47:54.231Z,60.86
2019-05-25T02:48:54.284Z,60.48
2019-05-25T02:49:54.280Z,60.86
2019-05-25T02:50:54.274Z,60.19
2019-05-25T02:51:54.279Z,60.58
2019-05-25T02:52:54.302Z,60.96
2019-05-25T02:53:54.306Z,60.86
2019-05-25T02:54:54.312Z,61.63
2019-05-25T02:55:54.303Z,61.63
2019-05-25T02:56:54.318Z,61.05
2019-05-25T02:57:54.325Z,61.34
2019-05-25T02:58:54.355Z,61.63
2019-05-25T02:59:54.382Z,61.41
2019-05-25T03:00:54.355Z,61.22
2019-05-25T03:01:54.343Z,61.63
2019-05-25T03:02:54.372Z,61.60
2019-05-25T03:03:54.419Z,61.60
2019-05-25T03:04:54.375Z,61.88
2019-05-25T03:05:54.389Z,62.27
2019-05-25T03:06:54.402Z,62.17
2019-05-25T03:07:54.417Z,62.27
2019-05-25T03:08:54.417Z,63.03
2019-05-25T03:09:54.443Z,62.74
2019-05-25T03:10:54.417Z,62.94
2019-05-25T03:11:54.428Z,63.42
2019-05-25T03:12:54.450Z,61.88
2019-05-25T03:13:54.506Z,63.32
2019-05-25T03:14:54.457Z,63.23
2019-05-25T03:15:54.468Z,61.98
2019-05-25T03:16:54.502Z,62.17
2019-05-25T03:17:54.475Z,62.20
2019-05-25T03:18:54.486Z,62.20
2019-05-25T03:19:54.523Z,62.30
2019-05-25T03:20:54.522Z,62.20
2019-05-25T03:21:54.562Z,62.11
2019-05-25T03:22:54.523Z,61.91
2019-05-25T03:23:54.516Z,62.87
2019-05-25T03:24:54.537Z,63.06
2019-05-25T03:25:54.547Z,62.68
2019-05-25T03:26:54.570Z,62.77
2019-05-25T03:27:54.556Z,62.87
2019-05-25T03:28:54.562Z,62.97
2019-05-25T03:29:54.575Z,63.06
2019-05-25T03:30:54.578Z,62.68
2019-05-25T03:31:54.642Z,62.87
2019-05-25T03:32:54.605Z,63.26
2019-05-25T03:33:54.595Z,63.35
2019-05-25T03:34:54.615Z,63.26
2019-05-25T03:35:54.610Z,63.35
2019-05-25T03:36:54.648Z,63.06
2019-05-25T03:37:54.686Z,63.64
2019-05-25T03:38:54.675Z,63.26
2019-05-25T03:39:54.675Z,62.87
2019-05-25T03:40:54.674Z,63.26
2019-05-25T03:41:54.658Z,63.16
2019-05-25T03:42:54.677Z,63.26
2019-05-25T03:43:54.713Z,63.06
2019-05-25T03:44:54.701Z,63.35
2019-05-25T03:45:54.719Z,62.87
2019-05-25T03:46:54.700Z,63.26
2019-05-25T03:47:54.716Z,63.26
2019-05-25T03:48:55.047Z,63.26
2019-05-25T03:49:54.723Z,63.54
2019-05-25T03:50:54.756Z,63.54
2019-05-25T03:51:54.746Z,64.02
2019-05-25T03:52:54.779Z,63.83
2019-05-25T03:53:54.835Z,64.22
2019-05-25T03:54:54.766Z,64.02
2019-05-25T03:56:05.226Z,64.79
2019-05-25T03:56:54.814Z,64.22
2019-05-25T03:57:54.797Z,64.98
2019-05-25T03:58:54.811Z,64.02
2019-05-25T03:59:54.838Z,64.12
2019-05-25T04:00:54.835Z,63.54
2019-05-25T04:01:54.826Z,63.73
2019-05-25T04:02:54.828Z,64.12
2019-05-25T04:03:54.869Z,63.64
2019-05-25T04:04:54.875Z,63.83
2019-05-25T04:05:54.877Z,64.02
2019-05-25T04:06:54.869Z,63.73
2019-05-25T04:07:54.888Z,63.54
2019-05-25T04:08:54.894Z,63.76
2019-05-25T04:09:54.879Z,62.90
2019-05-25T04:10:54.946Z,63.10
2019-05-25T04:11:54.900Z,63.39
2019-05-25T04:12:54.916Z,62.90
2019-05-25T04:13:54.947Z,62.81
2019-05-25T04:14:54.953Z,63.39
2019-05-25T04:15:54.982Z,62.74
2019-05-25T04:16:54.950Z,62.33
2019-05-25T04:17:54.966Z,62.52
2019-05-25T04:18:54.964Z,62.43
2019-05-25T04:19:54.980Z,62.33
2019-05-25T04:20:55.063Z,62.43
2019-05-25T04:21:55.019Z,62.36
2019-05-25T04:22:55.005Z,61.98
2019-05-25T04:23:55.003Z,61.69
2019-05-25T04:24:55.017Z,61.50
2019-05-25T04:25:55.091Z,61.15
2019-05-25T04:26:55.059Z,60.19
2019-05-25T04:27:55.065Z,60.00
2019-05-25T04:28:55.049Z,59.45
2019-05-25T04:29:55.062Z,58.39
2019-05-25T04:30:55.076Z,57.75
2019-05-25T04:31:55.093Z,56.63
2019-05-25T04:32:55.113Z,55.89
2019-05-25T04:33:55.116Z,55.44
2019-05-25T04:34:55.133Z,54.79
2019-05-25T04:35:55.124Z,53.74
2019-05-25T04:36:55.141Z,52.89
2019-05-25T04:37:55.133Z,51.45
2019-05-25T04:38:55.156Z,51.74
2019-05-25T04:39:55.159Z,50.68
2019-05-25T04:40:55.156Z,50.30
2019-05-25T04:41:55.214Z,50.90
2019-05-25T04:42:55.182Z,50.13
2019-05-25T04:43:55.221Z,50.32
2019-05-25T04:44:55.192Z,49.55
2019-05-25T04:45:55.210Z,50.13
2019-05-25T04:46:55.263Z,49.55
2019-05-25T04:47:55.297Z,49.36
2019-05-25T04:48:55.234Z,50.04
2019-05-25T04:49:55.239Z,49.48
2019-05-25T04:50:55.283Z,49.19
2019-05-25T04:51:55.275Z,48.61
2019-05-25T04:52:55.293Z,48.44
2019-05-25T04:53:55.312Z,48.38
2019-05-25T04:54:55.360Z,46.93
2019-05-25T04:55:55.315Z,46.78
2019-05-25T04:56:55.321Z,45.24
2019-05-25T04:57:55.370Z,43.89
2019-05-25T04:58:55.361Z,44.01
2019-05-25T04:59:55.379Z,43.62
2019-05-25T05:00:55.399Z,42.58
2019-05-25T05:01:55.449Z,42.21
2019-05-25T05:02:55.397Z,42.52
2019-05-25T05:03:55.422Z,41.17
2019-05-25T05:04:55.415Z,41.08
2019-05-25T05:05:55.435Z,40.61
2019-05-25T05:06:55.469Z,40.44
2019-05-25T05:07:55.509Z,39.76
2019-05-25T05:08:55.490Z,38.99
2019-05-25T05:10:02.694Z,39.09
2019-05-25T05:10:55.497Z,38.89
2019-05-25T05:11:55.512Z,39.16
2019-05-25T05:12:55.621Z,39.09
2019-05-25T05:13:55.527Z,38.79
2019-05-25T05:14:56.569Z,38.71
2019-05-25T05:15:55.552Z,38.13
2019-05-25T05:16:55.562Z,38.33
2019-05-25T05:17:55.585Z,38.04
2019-05-25T05:18:55.620Z,38.39
2019-05-25T05:19:55.625Z,38.62
2019-05-25T05:20:55.647Z,38.54
2019-05-25T05:21:55.641Z,37.57
2019-05-25T05:22:55.638Z,36.70
2019-05-25T05:23:55.674Z,37.11
2019-05-25T05:24:55.678Z,35.73
2019-05-25T05:25:55.708Z,36.40
2019-05-25T05:26:56.528Z,38.21
2019-05-25T05:27:55.720Z,38.31
2019-05-25T05:28:55.758Z,38.70
2019-05-25T05:29:55.740Z,38.02
2019-05-25T05:30:55.792Z,38.48
2019-05-25T05:31:55.766Z,38.79
2019-05-25T05:32:55.778Z,38.89
2019-05-25T05:33:55.809Z,38.33
2019-05-25T05:34:55.837Z,37.96
2019-05-25T05:35:55.836Z,36.80
2019-05-25T05:36:55.839Z,36.68
2019-05-25T05:37:55.870Z,37.05
2019-05-25T05:38:55.894Z,37.82
2019-05-25T05:39:55.900Z,38.04
2019-05-25T05:40:55.916Z,38.06
2019-05-25T05:41:55.896Z,36.91
2019-05-25T05:42:55.914Z,36.16
2019-05-25T05:43:55.931Z,35.57
2019-05-25T05:44:55.958Z,34.70
2019-05-25T05:45:56.063Z,35.01
2019-05-25T05:46:55.994Z,34.93
2019-05-25T05:47:56.007Z,34.54
2019-05-25T05:48:56.009Z,34.06
2019-05-25T05:49:56.039Z,33.70
2019-05-25T05:50:56.076Z,32.82
2019-05-25T05:51:56.053Z,33.20
2019-05-25T05:52:56.117Z,33.02
2019-05-25T05:53:56.176Z,32.64
2019-05-25T05:54:56.096Z,32.54
2019-05-25T05:55:56.250Z,32.71
2019-05-25T05:57:11.067Z,32.60
2019-05-25T05:57:56.174Z,33.28
2019-05-25T05:58:56.152Z,33.28
2019-05-25T05:59:56.179Z,33.20
2019-05-25T06:00:56.210Z,33.11
2019-05-25T06:01:56.213Z,32.71
2019-05-25T06:02:56.255Z,33.01
2019-05-25T06:03:56.270Z,33.11
2019-05-25T06:04:56.257Z,32.65
2019-05-25T06:05:56.261Z,31.77
2019-05-25T06:06:56.286Z,31.95
2019-05-25T06:07:56.320Z,32.05
2019-05-25T06:08:56.393Z,32.17
2019-05-25T06:09:56.329Z,31.66
2019-05-25T06:10:56.351Z,32.21
2019-05-25T06:11:56.369Z,33.26
2019-05-25T06:12:56.383Z,33.57
2019-05-25T06:13:56.413Z,33.18
2019-05-25T06:14:56.436Z,32.87
2019-05-25T06:15:56.446Z,32.89
2019-05-25T06:16:56.455Z,32.97
2019-05-25T06:17:56.444Z,32.97
2019-05-25T06:18:56.491Z,33.26
2019-05-25T06:19:56.517Z,33.75
2019-05-25T06:20:56.495Z,33.76
2019-05-25T06:21:56.546Z,33.26
2019-05-25T06:22:56.720Z,33.09
2019-05-25T06:23:56.576Z,32.99
2019-05-25T06:24:56.611Z,33.67
2019-05-25T06:25:56.600Z,33.18
2019-05-25T06:26:56.577Z,33.26
2019-05-25T06:27:56.609Z,33.52
2019-05-25T06:28:56.675Z,34.01
2019-05-25T06:29:56.627Z,34.11
2019-05-25T06:30:56.705Z,33.60
2019-05-25T06:31:56.686Z,33.91
2019-05-25T06:32:56.683Z,34.38
2019-05-25T06:33:56.698Z,34.30
2019-05-25T06:34:56.826Z,34.12
2019-05-25T06:35:56.761Z,32.97
2019-05-25T06:36:56.733Z,32.79
2019-05-25T06:37:56.760Z,32.23
2019-05-25T06:38:56.783Z,31.95
2019-05-25T06:39:56.780Z,32.04
2019-05-25T06:40:56.816Z,32.78
2019-05-25T06:41:56.831Z,32.86
2019-05-25T06:42:56.819Z,33.34
2019-05-25T06:43:56.863Z,33.52
2019-05-25T06:44:56.851Z,34.55
2019-05-25T06:45:56.876Z,35.23
2019-05-25T06:46:56.976Z,35.52
2019-05-25T06:47:56.892Z,35.41
2019-05-25T06:48:56.957Z,35.68
2019-05-25T06:49:56.963Z,36.46
2019-05-25T06:50:56.963Z,37.02
2019-05-25T06:51:57.066Z,37.50
2019-05-25T06:52:58.052Z,36.84
2019-05-25T06:53:56.977Z,36.74
2019-05-25T06:54:56.995Z,37.32
2019-05-25T06:55:57.037Z,36.84
2019-05-25T06:56:57.062Z,37.12
2019-05-25T06:57:57.048Z,37.77
2019-05-25T06:58:57.279Z,37.87
2019-05-25T06:59:57.287Z,38.28
2019-05-25T07:00:57.071Z,38.28
2019-05-25T07:01:57.130Z,37.98
2019-05-25T07:02:57.092Z,38.66
2019-05-25T07:03:57.123Z,38.85
2019-05-25T07:04:57.128Z,38.66
2019-05-25T07:05:57.147Z,38.64
2019-05-25T07:06:57.179Z,38.64
2019-05-25T07:07:57.186Z,38.74
2019-05-25T07:08:57.228Z,39.20
2019-05-25T07:09:57.196Z,39.69
2019-05-25T07:10:57.208Z,39.86
2019-05-25T07:11:57.219Z,40.63
2019-05-25T07:12:57.312Z,40.53
2019-05-25T07:13:57.292Z,41.38
2019-05-25T07:14:57.260Z,41.19
2019-05-25T07:15:57.285Z,40.90
2019-05-25T07:16:57.303Z,41.48
2019-05-25T07:17:57.304Z,41.57
2019-05-25T07:18:58.052Z,41.57
2019-05-25T07:19:57.312Z,42.35
2019-05-25T07:20:57.365Z,41.94
2019-05-25T07:21:57.350Z,42.52
2019-05-25T07:22:57.360Z,42.42
2019-05-25T07:23:57.411Z,42.42
2019-05-25T07:24:57.390Z,42.03
2019-05-25T07:25:57.490Z,41.94
2019-05-25T07:26:57.390Z,42.13
2019-05-25T07:28:00.075Z,42.42
2019-05-25T07:28:57.466Z,42.59
2019-05-25T07:29:57.434Z,43.55
2019-05-25T07:30:57.458Z,43.27
2019-05-25T07:31:57.474Z,43.37
2019-05-25T07:32:57.484Z,43.63
2019-05-25T07:33:57.482Z,44.21
2019-05-25T07:34:57.541Z,45.07
2019-05-25T07:35:57.531Z,44.98
2019-05-25T07:36:57.526Z,44.98
2019-05-25T07:37:57.551Z,44.79
2019-05-25T07:38:57.535Z,44.59
2019-05-25T07:39:57.548Z,45.07
2019-05-25T07:40:57.570Z,45.07
2019-05-25T07:41:57.573Z,45.07
2019-05-25T07:42:57.633Z,44.79
2019-05-25T07:43:57.602Z,44.98
2019-05-25T07:44:57.610Z,44.89
2019-05-25T07:45:57.654Z,45.27
2019-05-25T07:46:57.670Z,45.07
2019-05-25T07:47:57.699Z,45.27
2019-05-25T07:48:57.644Z,44.89
2019-05-25T07:49:57.684Z,45.17
2019-05-25T07:50:57.667Z,45.36
2019-05-25T07:51:57.708Z,45.46
2019-05-25T07:52:57.812Z,45.53
2019-05-25T07:53:57.729Z,45.44
2019-05-25T07:54:57.749Z,45.63
2019-05-25T07:55:57.747Z,45.73
2019-05-25T07:56:57.790Z,45.94
2019-05-25T07:57:57.744Z,45.83
2019-05-25T07:58:57.857Z,46.01
2019-05-25T07:59:57.774Z,46.01
2019-05-25T08:00:57.926Z,46.62
2019-05-25T08:01:57.832Z,46.31
2019-05-25T08:02:57.860Z,46.40
2019-05-25T08:03:57.852Z,46.31
2019-05-25T08:04:57.849Z,46.52
2019-05-25T08:05:57.849Z,46.42
2019-05-25T08:06:57.861Z,45.84
2019-05-25T08:07:57.931Z,45.75
2019-05-25T08:08:57.877Z,45.84
2019-05-25T08:09:57.891Z,45.65
2019-05-25T08:10:57.891Z,45.65
2019-05-25T08:11:58.576Z,45.94
2019-05-25T08:12:57.984Z,45.94
2019-05-25T08:13:57.931Z,46.04
2019-05-25T08:14:57.948Z,46.23
2019-05-25T08:15:57.976Z,46.23
2019-05-25T08:16:57.959Z,46.50
2019-05-25T08:17:58.068Z,47.17
2019-05-25T08:18:58.036Z,47.08
2019-05-25T08:19:57.998Z,47.36
2019-05-25T08:20:58.092Z,47.46
2019-05-25T08:21:58.030Z,47.75
2019-05-25T08:22:58.097Z,47.27
2019-05-25T08:23:58.148Z,47.27
2019-05-25T08:24:58.110Z,47.85
2019-05-25T08:25:58.096Z,47.53
2019-05-25T08:26:58.084Z,47.53
2019-05-25T08:27:58.093Z,48.11
2019-05-25T08:28:58.132Z,48.02
2019-05-25T08:29:58.192Z,47.46
2019-05-25T08:31:01.137Z,48.02
2019-05-25T08:31:58.148Z,48.43
2019-05-25T08:32:58.149Z,48.40
2019-05-25T08:33:58.164Z,48.11
2019-05-25T08:34:58.257Z,48.13
2019-05-25T08:35:58.187Z,48.30
2019-05-25T08:36:58.212Z,48.88
2019-05-25T08:37:58.223Z,49.27
2019-05-25T08:38:58.247Z,49.74
2019-05-25T08:39:58.293Z,50.13
2019-05-25T08:40:58.253Z,49.27
2019-05-25T08:41:58.234Z,50.04
2019-05-25T08:42:58.261Z,49.84
2019-05-25T08:43:58.270Z,49.65
2019-05-25T08:44:58.332Z,49.46
2019-05-25T08:45:58.359Z,49.84
2019-05-25T08:46:58.299Z,49.55
2019-05-25T08:47:58.303Z,49.36
2019-05-25T08:48:58.313Z,49.55
2019-05-25T08:49:58.380Z,49.46
2019-05-25T08:50:59.736Z,50.04
2019-05-25T08:51:58.379Z,50.04
2019-05-25T08:52:58.397Z,50.78
2019-05-25T08:53:58.373Z,50.20
2019-05-25T08:54:58.386Z,50.68
2019-05-25T08:55:58.409Z,50.30
2019-05-25T08:56:58.413Z,51.07
2019-05-25T08:57:58.565Z,50.68
2019-05-25T08:58:58.428Z,50.61
2019-05-25T08:59:58.451Z,50.81
2019-05-25T09:00:58.483Z,50.59
2019-05-25T09:01:58.461Z,50.81
2019-05-25T09:02:58.501Z,50.81
2019-05-25T09:03:58.496Z,50.81
2019-05-25T09:04:58.487Z,50.51
2019-05-25T09:05:58.538Z,50.61
2019-05-25T09:06:58.588Z,50.51
2019-05-25T09:07:59.152Z,50.51
2019-05-25T09:08:58.533Z,50.90
2019-05-25T09:09:58.641Z,51.38
2019-05-25T09:10:58.573Z,51.48
2019-05-25T09:11:58.564Z,51.48
2019-05-25T09:12:58.586Z,50.99
2019-05-25T09:13:58.580Z,51.09
2019-05-25T09:14:58.636Z,50.99
2019-05-25T09:15:58.602Z,51.55
2019-05-25T09:16:58.629Z,51.55
2019-05-25T09:17:58.656Z,51.64
2019-05-25T09:18:58.712Z,52.58
2019-05-25T09:19:58.667Z,52.39
2019-05-25T09:20:59.243Z,52.68
2019-05-25T09:22:02.473Z,52.77
2019-05-25T09:22:58.673Z,53.16
2019-05-25T09:23:59.763Z,52.77
2019-05-25T09:24:58.776Z,52.80
2019-05-25T09:25:58.880Z,52.99
2019-05-25T09:26:58.790Z,52.61
2019-05-25T09:27:58.773Z,52.06
2019-05-25T09:29:04.448Z,51.29
2019-05-25T09:29:59.808Z,50.99
2019-05-25T09:30:58.770Z,50.13
2019-05-25T09:31:58.887Z,50.23
2019-05-25T09:32:58.812Z,50.15
2019-05-25T09:33:58.835Z,50.06
2019-05-25T09:34:58.902Z,49.58
2019-05-25T09:35:58.842Z,49.87
2019-05-25T09:36:58.873Z,49.96
2019-05-25T09:37:58.824Z,49.29
2019-05-25T09:38:58.853Z,49.07
2019-05-25T09:39:58.961Z,49.17
2019-05-25T09:40:58.878Z,49.36
2019-05-25T09:41:58.905Z,49.84
2019-05-25T09:42:58.904Z,49.74
2019-05-25T09:43:58.902Z,49.46
2019-05-25T09:44:58.961Z,50.10
2019-05-25T11:13:16.869Z,42.08
2019-05-25T11:14:16.832Z,41.78
2019-05-25T11:15:16.892Z,42.27
2019-05-25T11:16:16.871Z,41.88
2019-05-25T11:17:16.864Z,41.69
2019-05-25T11:18:16.889Z,42.36
2019-05-25T11:19:16.888Z,42.27
2019-05-25T11:20:16.915Z,41.98
2019-05-25T11:21:16.918Z,41.69
2019-05-25T11:22:16.939Z,41.30
2019-05-25T11:23:16.972Z,41.13
2019-05-25T11:24:16.953Z,41.13
2019-05-25T11:25:16.963Z,40.82
2019-05-25T11:26:17.014Z,41.03
2019-05-25T11:27:16.979Z,41.13
2019-05-25T11:28:17.070Z,41.15
2019-05-25T11:29:17.022Z,41.05
2019-05-25T11:30:17.019Z,40.67
2019-05-25T11:31:17.070Z,40.86
2019-05-25T11:32:17.128Z,41.05
2019-05-25T11:33:17.098Z,40.77
2019-05-25T11:34:17.104Z,40.19
2019-05-25T11:35:17.102Z,40.28
2019-05-25T11:36:17.146Z,39.99
2019-05-25T11:37:17.160Z,39.80
2019-05-25T11:38:17.119Z,40.09
2019-05-25T11:39:17.136Z,40.28
2019-05-25T11:40:17.149Z,40.19
2019-05-25T11:41:17.406Z,40.38
2019-05-25T11:42:17.500Z,40.47
2019-05-25T11:43:17.361Z,40.88
2019-05-25T11:44:17.212Z,40.77
2019-05-25T11:45:17.649Z,40.19
2019-05-25T11:46:17.327Z,40.19
2019-05-25T11:47:17.345Z,39.80
2019-05-25T11:48:17.385Z,39.99
2019-05-25T11:49:22.626Z,40.57
2019-05-25T11:50:17.393Z,40.67
2019-05-25T11:51:17.593Z,40.38
2019-05-25T11:52:17.697Z,40.28
2019-05-25T11:53:17.334Z,39.80
2019-05-25T11:54:17.498Z,40.38
2019-05-25T11:55:17.412Z,40.38
2019-05-25T11:56:17.353Z,40.36
2019-05-25T11:57:17.382Z,40.75
2019-05-25T11:58:17.745Z,40.55
2019-05-25T11:59:17.382Z,40.55
2019-05-25T12:00:24.795Z,41.02
2019-05-25T12:01:17.475Z,40.92
2019-05-25T12:02:17.445Z,41.20
2019-05-25T12:03:17.449Z,41.19
2019-05-25T12:04:17.466Z,41.11
2019-05-25T12:05:17.493Z,41.20
2019-05-25T12:06:17.497Z,41.11
2019-05-25T12:07:19.838Z,41.69
2019-05-25T12:08:17.524Z,41.42
2019-05-25T12:09:17.572Z,41.30
2019-05-25T12:10:17.543Z,40.82
2019-05-25T12:11:17.544Z,40.92
2019-05-25T12:12:17.549Z,41.13
2019-05-25T12:13:17.596Z,41.52
2019-05-25T12:14:17.602Z,41.33
2019-05-25T12:15:17.883Z,40.65
2019-05-25T12:16:17.640Z,40.84
2019-05-25T12:17:17.624Z,40.65
2019-05-25T12:18:17.623Z,40.82
2019-05-25T12:19:17.723Z,40.92
2019-05-25T12:20:17.734Z,41.40
2019-05-25T12:21:17.704Z,41.11
2019-05-25T12:22:17.690Z,41.02
2019-05-25T12:23:17.706Z,40.84
2019-05-25T12:24:17.713Z,41.33
2019-05-25T12:25:18.729Z,40.63
2019-05-25T12:26:18.795Z,41.03
2019-05-25T12:27:17.788Z,41.13
2019-05-25T12:28:17.826Z,41.33
2019-05-25T12:29:17.772Z,40.94
2019-05-25T12:30:17.803Z,41.13
2019-05-25T12:31:17.847Z,41.23
2019-05-25T12:32:17.807Z,40.96
2019-05-25T12:33:17.837Z,40.67
2019-05-25T12:34:17.896Z,40.45
2019-05-25T12:35:17.832Z,40.67
2019-05-25T12:36:17.878Z,40.96
2019-05-25T12:37:17.943Z,40.67
2019-05-25T12:38:17.870Z,40.28
2019-05-25T12:39:17.957Z,40.36
2019-05-25T12:40:17.979Z,40.75
2019-05-25T12:41:18.944Z,40.55
2019-05-25T12:42:17.922Z,40.84
2019-05-25T12:43:17.941Z,41.11
2019-05-25T12:44:17.980Z,41.33
2019-05-25T12:45:17.967Z,41.42
2019-05-25T12:46:18.110Z,41.13
2019-05-25T12:47:18.040Z,41.61
2019-05-25T12:48:18.003Z,41.52
2019-05-25T12:49:18.028Z,41.60
2019-05-25T12:50:18.103Z,41.98
2019-05-25T12:51:18.134Z,41.96
2019-05-25T12:52:18.054Z,42.54
2019-05-25T12:53:18.063Z,42.73
2019-05-25T12:54:18.104Z,42.80
2019-05-25T12:55:18.114Z,43.21
2019-05-25T12:56:19.794Z,43.21
2019-05-25T12:57:18.125Z,43.31
2019-05-25T12:58:18.133Z,43.12
2019-05-25T12:59:18.171Z,43.89
2019-05-25T13:00:18.184Z,44.08
2019-05-25T13:01:18.168Z,43.96
2019-05-25T13:02:18.176Z,44.15
2019-05-25T13:03:18.214Z,44.35
2019-05-25T13:04:18.225Z,44.45
2019-05-25T13:05:32.929Z,44.45
2019-05-25T13:06:18.556Z,44.73
2019-05-25T13:07:18.275Z,45.20
2019-05-25T13:08:18.499Z,45.20
2019-05-25T13:09:18.260Z,45.03
2019-05-25T13:10:18.277Z,45.21
2019-05-25T13:11:19.029Z,45.12
2019-05-25T13:12:18.327Z,44.15
2019-05-25T13:13:18.620Z,43.79
2019-05-25T13:14:18.376Z,43.60
2019-05-25T13:15:18.334Z,43.41
2019-05-25T13:16:18.365Z,43.79
2019-05-25T13:17:18.369Z,43.89
2019-05-25T13:18:18.413Z,43.41
2019-05-25T13:19:18.491Z,43.21
2019-05-25T13:20:18.593Z,43.41
2019-05-25T13:21:18.399Z,43.50
2019-05-25T13:22:18.435Z,43.50
2019-05-25T13:23:18.510Z,43.62
2019-05-25T13:24:18.453Z,43.60
2019-05-25T13:25:18.443Z,43.04
2019-05-25T13:26:18.467Z,43.33
2019-05-25T13:27:18.467Z,42.85
2019-05-25T13:28:19.031Z,42.66
2019-05-25T13:29:18.544Z,42.36
2019-05-25T13:30:18.506Z,41.98
2019-05-25T13:31:18.555Z,42.08
2019-05-25T13:32:18.561Z,41.88
2019-05-25T13:33:18.543Z,41.88
2019-05-25T13:34:18.632Z,41.78
2019-05-25T13:35:18.589Z,41.78
2019-05-25T13:36:18.624Z,42.44
2019-05-25T13:37:18.610Z,43.21
2019-05-25T13:38:18.641Z,42.63
2019-05-25T13:39:18.624Z,42.83
2019-05-25T13:40:18.861Z,43.31
2019-05-25T13:41:18.653Z,43.60
2019-05-25T13:42:18.679Z,43.31
2019-05-25T13:43:18.698Z,43.50
2019-05-25T13:44:18.685Z,43.19
2019-05-25T13:45:18.705Z,43.58
2019-05-25T13:46:18.721Z,44.06
2019-05-25T13:47:18.757Z,43.96
2019-05-25T13:48:18.909Z,44.32
2019-05-25T13:49:18.751Z,44.35
2019-05-25T13:50:18.764Z,44.23
2019-05-25T13:51:18.791Z,44.73
2019-05-25T13:52:18.778Z,44.23
2019-05-25T13:53:18.814Z,44.32
2019-05-25T13:54:18.806Z,45.07
2019-05-25T13:55:18.818Z,44.90
2019-05-25T13:56:18.839Z,45.00
2019-05-25T13:57:18.838Z,45.20
2019-05-25T13:58:18.913Z,44.90
2019-05-25T13:59:18.866Z,44.90
2019-05-25T14:00:18.876Z,45.20
2019-05-25T14:01:27.869Z,44.90
2019-05-25T14:02:19.047Z,45.10
2019-05-25T14:03:18.962Z,45.10
2019-05-25T14:04:18.980Z,44.90
2019-05-25T14:05:18.921Z,44.45
2019-05-25T14:06:18.936Z,44.32
2019-05-25T14:07:18.966Z,44.42
2019-05-25T14:08:18.996Z,44.45
2019-05-25T14:09:18.982Z,44.23
2019-05-25T14:10:18.992Z,44.23
2019-05-25T14:11:19.011Z,44.52
2019-05-25T14:12:19.019Z,44.15
2019-05-25T14:13:19.133Z,44.15
2019-05-25T14:14:19.042Z,44.06
2019-05-25T14:15:19.072Z,44.06
2019-05-25T14:16:19.058Z,43.38
2019-05-25T14:17:19.068Z,43.10
2019-05-25T14:18:19.094Z,43.19
2019-05-25T14:19:19.085Z,43.10
2019-05-25T14:20:19.147Z,43.67